createdAt,value
2018-03-16T00:01:32.519Z,8.80
2018-03-16T00:04:00.106Z,8.70
2018-03-16T00:06:28.426Z,8.70
2018-03-16T00:08:56.010Z,8.60
2018-03-16T00:11:23.570Z,8.70
2018-03-16T00:13:51.275Z,8.70
2018-03-16T00:16:18.938Z,8.70
2018-03-16T00:18:46.531Z,8.60
2018-03-16T00:21:14.098Z,8.60
2018-03-16T00:23:41.695Z,8.60
2018-03-16T00:26:10.023Z,8.60
2018-03-16T00:28:37.765Z,8.50
2018-03-16T00:31:05.338Z,8.50
2018-03-16T00:33:32.911Z,8.50
2018-03-16T00:36:00.474Z,8.50
2018-03-16T00:38:28.105Z,8.50
2018-03-16T00:40:55.666Z,8.40
2018-03-16T00:43:23.267Z,8.50
2018-03-16T00:45:50.822Z,8.50
2018-03-16T00:48:18.394Z,8.50
2018-03-16T00:50:45.986Z,8.50
2018-03-16T00:53:13.553Z,8.30
2018-03-16T00:55:41.180Z,8.30
2018-03-16T00:58:09.660Z,8.10
2018-03-16T01:00:38.059Z,8.00
2018-03-16T01:03:05.702Z,8.00
2018-03-16T01:05:34.225Z,8.10
2018-03-16T01:08:01.779Z,8.10
2018-03-16T01:10:29.401Z,8.00
2018-03-16T01:12:57.870Z,8.30
2018-03-16T01:15:26.247Z,8.30
2018-03-16T01:17:54.711Z,8.40
2018-03-16T01:20:22.395Z,8.30
2018-03-16T01:22:50.743Z,8.00
2018-03-16T01:25:18.298Z,8.00
2018-03-16T01:27:45.879Z,8.00
2018-03-16T01:30:14.204Z,7.90
2018-03-16T01:32:41.799Z,7.90
2018-03-16T01:35:09.372Z,8.00
2018-03-16T01:37:36.958Z,8.00
2018-03-16T01:40:04.532Z,8.00
2018-03-16T01:42:32.113Z,7.80
2018-03-16T01:44:59.667Z,7.80
2018-03-16T01:47:27.260Z,7.80
2018-03-16T01:49:54.814Z,7.80
2018-03-16T01:52:22.384Z,7.70
2018-03-16T01:54:50.730Z,7.60
2018-03-16T01:57:18.292Z,7.60
2018-03-16T01:59:45.902Z,7.60
2018-03-16T02:02:13.459Z,7.40
2018-03-16T02:04:41.222Z,7.10
2018-03-16T02:07:08.806Z,7.10
2018-03-16T02:09:36.382Z,6.90
2018-03-16T02:12:03.939Z,6.90
2018-03-16T02:14:31.577Z,7.20
2018-03-16T02:16:59.231Z,7.10
2018-03-16T02:19:26.803Z,7.00
2018-03-16T02:21:54.375Z,7.00
2018-03-16T02:24:21.974Z,6.90
2018-03-16T02:26:50.296Z,6.60
2018-03-16T02:29:17.949Z,6.60
2018-03-16T02:31:45.516Z,6.60
2018-03-16T02:34:13.110Z,6.70
2018-03-16T02:36:40.666Z,6.90
2018-03-16T02:39:08.243Z,6.90
2018-03-16T02:41:36.755Z,7.00
2018-03-16T02:44:04.330Z,6.90
2018-03-16T02:46:31.923Z,6.90
2018-03-16T02:48:59.491Z,7.00
2018-03-16T02:51:27.070Z,7.10
2018-03-16T02:53:55.448Z,7.10
2018-03-16T02:56:22.996Z,7.00
2018-03-16T02:58:51.432Z,7.10
2018-03-16T03:01:19.191Z,7.00
2018-03-16T03:03:46.783Z,7.10
2018-03-16T03:06:14.415Z,7.00
2018-03-16T03:08:42.031Z,7.10
2018-03-16T03:11:10.506Z,7.40
2018-03-16T03:13:39.026Z,7.50
2018-03-16T03:16:06.604Z,7.50
2018-03-16T03:18:34.195Z,7.60
2018-03-16T03:21:02.674Z,7.20
2018-03-16T03:23:31.002Z,7.10
2018-03-16T03:25:58.698Z,7.10
2018-03-16T03:28:26.246Z,7.10
2018-03-16T03:30:53.883Z,7.20
2018-03-16T03:33:21.434Z,7.40
2018-03-16T03:35:49.102Z,7.10
2018-03-16T03:38:16.656Z,7.00
2018-03-16T03:40:44.260Z,7.00
2018-03-16T03:43:11.911Z,7.10
2018-03-16T03:45:39.514Z,7.20
2018-03-16T03:48:07.065Z,7.40
2018-03-16T03:50:34.796Z,7.60
2018-03-16T03:53:02.365Z,7.70
2018-03-16T03:55:30.714Z,7.70
2018-03-16T03:57:58.287Z,7.70
2018-03-16T04:00:26.738Z,7.60
2018-03-16T04:02:54.291Z,7.60
2018-03-16T04:05:21.870Z,7.70
2018-03-16T04:07:49.426Z,7.70
2018-03-16T04:10:17.023Z,7.70
2018-03-16T04:12:45.344Z,7.70
2018-03-16T04:15:12.934Z,7.60
2018-03-16T04:17:40.522Z,7.60
2018-03-16T04:20:08.842Z,7.30
2018-03-16T04:22:36.438Z,7.30
2018-03-16T04:25:03.999Z,7.50
2018-03-16T04:27:31.578Z,7.60
2018-03-16T04:29:59.163Z,7.50
2018-03-16T04:32:26.847Z,7.60
2018-03-16T04:34:54.406Z,7.50
2018-03-16T04:37:21.966Z,7.50
2018-03-16T04:39:49.551Z,7.50
2018-03-16T04:42:17.910Z,7.50
2018-03-16T04:44:45.578Z,7.50
2018-03-16T04:47:13.167Z,7.60
2018-03-16T04:49:41.727Z,7.60
2018-03-16T04:52:09.322Z,7.50
2018-03-16T04:54:36.882Z,7.60
2018-03-16T04:57:04.460Z,7.60
2018-03-16T04:59:32.015Z,7.60
2018-03-16T05:01:59.592Z,7.60
2018-03-16T05:04:27.213Z,7.60
2018-03-16T05:06:54.813Z,7.60
2018-03-16T05:09:22.372Z,7.60
2018-03-16T05:11:50.067Z,7.50
2018-03-16T05:14:18.419Z,7.50
2018-03-16T05:16:46.055Z,7.60
2018-03-16T05:19:13.642Z,7.60
2018-03-16T05:21:41.199Z,7.50
2018-03-16T05:24:08.938Z,7.60
2018-03-16T05:26:36.502Z,7.50
2018-03-16T05:29:04.079Z,7.50
2018-03-16T05:31:33.328Z,7.50
2018-03-16T05:34:00.879Z,7.50
2018-03-16T05:36:28.544Z,7.50
2018-03-16T05:38:56.104Z,7.50
2018-03-16T05:41:23.792Z,7.50
2018-03-16T05:43:51.359Z,7.50
2018-03-16T05:46:18.943Z,7.50
2018-03-16T05:48:46.515Z,7.50
2018-03-16T05:51:14.843Z,7.30
2018-03-16T05:53:42.431Z,7.30
2018-03-16T05:56:10.001Z,7.30
2018-03-16T05:58:37.639Z,7.30
2018-03-16T06:01:05.198Z,7.30
2018-03-16T06:03:32.830Z,7.30
2018-03-16T06:06:00.387Z,7.30
2018-03-16T06:08:27.942Z,7.30
2018-03-16T06:10:55.588Z,7.30
2018-03-16T06:13:23.142Z,7.30
2018-03-16T06:15:50.734Z,7.40
2018-03-16T06:18:18.296Z,7.40
2018-03-16T06:20:45.846Z,7.40
2018-03-16T06:23:13.442Z,7.50
2018-03-16T06:25:41.026Z,7.50
2018-03-16T06:28:09.411Z,7.80
2018-03-16T06:30:37.069Z,7.70
2018-03-16T06:33:04.627Z,7.90
2018-03-16T06:35:32.354Z,8.10
2018-03-16T06:37:59.935Z,8.10
2018-03-16T06:40:28.443Z,8.30
2018-03-16T06:42:56.039Z,8.30
2018-03-16T06:45:23.594Z,8.30
2018-03-16T06:47:51.308Z,8.30
2018-03-16T06:50:18.903Z,8.30
2018-03-16T06:52:46.491Z,8.40
2018-03-16T06:55:14.082Z,8.40
2018-03-16T06:57:41.671Z,8.50
2018-03-16T07:00:09.230Z,8.40
2018-03-16T07:02:36.830Z,8.30
2018-03-16T07:05:04.414Z,8.20
2018-03-16T07:07:32.834Z,8.30
2018-03-16T07:10:01.375Z,8.30
2018-03-16T07:12:28.970Z,8.20
2018-03-16T07:14:56.648Z,8.20
2018-03-16T07:17:24.353Z,8.20
2018-03-16T07:19:52.689Z,8.20
2018-03-16T07:22:20.239Z,8.20
2018-03-16T07:24:47.915Z,8.30
2018-03-16T07:27:15.479Z,8.10
2018-03-16T07:29:43.255Z,8.30
2018-03-16T07:32:11.575Z,8.40
2018-03-16T07:34:39.151Z,8.30
2018-03-16T07:37:06.727Z,8.30
2018-03-16T07:39:34.306Z,8.40
2018-03-16T07:42:02.639Z,8.40
2018-03-16T07:44:30.214Z,8.40
2018-03-16T07:46:57.791Z,8.50
2018-03-16T07:49:25.503Z,8.50
2018-03-16T07:51:53.074Z,8.50
2018-03-16T07:54:20.666Z,8.60
2018-03-16T07:56:48.395Z,8.50
2018-03-16T07:59:16.007Z,8.60
2018-03-16T08:01:44.374Z,8.70
2018-03-16T08:04:12.041Z,8.60
2018-03-16T08:06:40.415Z,8.90
2018-03-16T08:09:08.761Z,8.80
2018-03-16T08:11:36.363Z,8.70
2018-03-16T08:14:04.748Z,8.90
2018-03-16T08:16:33.098Z,9.00
2018-03-16T08:19:00.674Z,9.00
2018-03-16T08:21:29.018Z,9.40
2018-03-16T08:23:56.701Z,9.40
2018-03-16T08:26:25.161Z,9.40
2018-03-16T08:28:52.748Z,9.40
2018-03-16T08:31:21.162Z,9.40
2018-03-16T08:33:48.774Z,9.30
2018-03-16T08:36:16.399Z,9.20
2018-03-16T08:38:44.035Z,9.40
2018-03-16T08:41:11.747Z,9.40
2018-03-16T08:43:39.311Z,9.60
2018-03-16T08:46:06.893Z,9.70
2018-03-16T08:48:34.467Z,9.80
2018-03-16T08:51:02.043Z,9.80
2018-03-16T08:53:29.610Z,9.90
2018-03-16T08:55:57.226Z,9.70
2018-03-16T08:58:25.616Z,10.10
2018-03-16T09:00:53.262Z,10.10
2018-03-16T09:03:21.612Z,10.30
2018-03-16T09:05:49.207Z,10.20
2018-03-16T09:08:16.819Z,10.30
2018-03-16T09:10:44.599Z,10.40
2018-03-16T09:13:12.363Z,10.60
2018-03-16T09:15:39.922Z,10.40
2018-03-16T09:18:07.528Z,10.20
2018-03-16T09:20:35.109Z,10.40
2018-03-16T09:23:02.671Z,10.50
2018-03-16T09:25:30.287Z,10.40
2018-03-16T09:27:57.966Z,10.60
2018-03-16T09:30:25.544Z,10.60
2018-03-16T09:32:53.123Z,10.80
2018-03-16T09:35:20.736Z,10.80
2018-03-16T09:37:48.294Z,10.60
2018-03-16T09:40:15.874Z,10.60
2018-03-16T09:42:43.443Z,10.40
2018-03-16T09:45:11.043Z,10.50
2018-03-16T09:47:39.462Z,10.60
2018-03-16T09:50:07.057Z,10.60
2018-03-16T09:52:34.630Z,10.50
2018-03-16T09:55:15.006Z,10.40
2018-03-16T09:57:43.337Z,10.40
2018-03-16T10:00:11.207Z,10.30
2018-03-16T10:02:38.781Z,10.50
2018-03-16T10:05:06.332Z,10.60
2018-03-16T10:07:33.914Z,10.80
2018-03-16T10:10:02.281Z,11.20
2018-03-16T10:12:30.632Z,11.50
2018-03-16T10:14:58.186Z,11.50
2018-03-16T10:17:25.943Z,11.40
2018-03-16T10:19:53.531Z,11.40
2018-03-16T10:22:21.295Z,11.30
2018-03-16T10:24:50.359Z,11.40
2018-03-16T10:27:17.989Z,11.40
2018-03-16T10:29:45.544Z,11.20
2018-03-16T10:32:13.131Z,11.50
2018-03-16T10:34:40.705Z,11.70
2018-03-16T10:37:08.400Z,11.60
2018-03-16T10:39:36.742Z,11.50
2018-03-16T10:42:04.343Z,11.50
2018-03-16T10:44:32.679Z,11.80
2018-03-16T10:47:00.253Z,11.80
2018-03-16T10:49:27.856Z,12.00
2018-03-16T10:51:55.419Z,11.60
2018-03-16T10:54:23.087Z,11.70
2018-03-16T10:56:50.679Z,11.70
2018-03-16T10:59:18.278Z,11.60
2018-03-16T11:01:52.233Z,11.40
2018-03-16T11:04:19.799Z,11.50
2018-03-16T11:06:47.354Z,11.50
2018-03-16T11:09:14.985Z,11.50
2018-03-16T11:11:43.304Z,11.60
2018-03-16T11:14:11.007Z,11.60
2018-03-16T11:16:39.335Z,13.00
2018-03-16T11:19:06.930Z,13.00
2018-03-16T11:21:35.363Z,14.20
2018-03-16T11:24:03.106Z,14.20
2018-03-16T11:26:30.667Z,13.90
2018-03-16T11:28:58.429Z,13.30
2018-03-16T11:31:26.042Z,13.20
2018-03-16T11:33:53.802Z,13.40
2018-03-16T11:36:21.347Z,13.40
2018-03-16T11:38:48.954Z,13.40
2018-03-16T11:41:16.524Z,13.20
2018-03-16T11:43:44.119Z,13.00
2018-03-16T11:46:11.675Z,12.70
2018-03-16T11:48:39.267Z,12.90
2018-03-16T11:51:07.651Z,14.90
2018-03-16T11:53:35.984Z,15.40
2018-03-16T11:56:03.607Z,15.30
2018-03-16T11:58:31.166Z,15.40
2018-03-16T12:00:58.807Z,15.50
2018-03-16T12:03:27.174Z,14.20
2018-03-16T12:05:55.626Z,14.20
2018-03-16T12:08:23.191Z,14.20
2018-03-16T12:10:50.792Z,13.50
2018-03-16T12:13:18.422Z,13.00
2018-03-16T12:15:46.093Z,13.00
2018-03-16T12:18:14.551Z,16.00
2018-03-16T12:20:43.639Z,15.50
2018-03-16T12:23:11.231Z,15.50
2018-03-16T12:25:39.618Z,13.20
2018-03-16T12:28:08.172Z,13.40
2018-03-16T12:30:35.756Z,13.40
2018-03-16T12:33:04.119Z,13.50
2018-03-16T12:35:32.424Z,15.00
2018-03-16T12:38:00.046Z,15.00
2018-03-16T12:40:27.787Z,14.50
2018-03-16T12:42:55.384Z,13.80
2018-03-16T12:45:23.764Z,12.40
2018-03-16T12:47:52.143Z,12.20
2018-03-16T12:50:20.450Z,12.50
2018-03-16T12:52:48.054Z,12.50
2018-03-16T12:55:15.663Z,12.80
2018-03-16T12:57:43.270Z,13.00
2018-03-16T13:00:10.851Z,13.40
2018-03-16T13:02:39.182Z,15.20
2018-03-16T13:05:06.837Z,15.10
2018-03-16T13:07:34.430Z,15.70
2018-03-16T13:10:02.078Z,16.10
2018-03-16T13:12:29.674Z,15.30
2018-03-16T13:14:58.022Z,15.80
2018-03-16T13:17:25.615Z,15.80
2018-03-16T13:19:53.187Z,14.60
2018-03-16T13:22:20.783Z,14.20
2018-03-16T13:24:48.346Z,14.50
2018-03-16T13:27:15.923Z,14.80
2018-03-16T13:29:43.535Z,15.20
2018-03-16T13:32:11.143Z,14.80
2018-03-16T13:34:38.690Z,14.90
2018-03-16T13:37:06.234Z,15.60
2018-03-16T13:39:33.875Z,14.50
2018-03-16T13:42:01.444Z,14.50
2018-03-16T13:44:29.046Z,14.40
2018-03-16T13:46:57.443Z,14.30
2018-03-16T13:49:25.026Z,14.30
2018-03-16T13:51:52.667Z,14.20
2018-03-16T13:54:20.242Z,14.20
2018-03-16T13:56:47.844Z,14.40
2018-03-16T13:59:15.410Z,15.60
2018-03-16T14:01:43.010Z,15.60
2018-03-16T14:04:10.573Z,14.90
2018-03-16T14:06:38.172Z,14.90
2018-03-16T14:09:05.734Z,14.60
2018-03-16T14:11:33.332Z,14.30
2018-03-16T14:14:00.979Z,14.40
2018-03-16T14:16:29.347Z,15.60
2018-03-16T14:18:57.708Z,15.80
2018-03-16T14:21:25.295Z,15.70
2018-03-16T14:23:53.628Z,15.00
2018-03-16T14:26:21.212Z,15.00
2018-03-16T14:28:48.771Z,15.00
2018-03-16T14:31:16.599Z,16.00
2018-03-16T14:33:44.156Z,17.10
2018-03-16T14:36:11.715Z,16.90
2018-03-16T14:38:39.298Z,16.50
2018-03-16T14:41:06.887Z,14.60
2018-03-16T14:43:35.221Z,14.50
2018-03-16T14:46:02.938Z,14.50
2018-03-16T14:48:30.534Z,14.10
2018-03-16T14:50:58.119Z,13.60
2018-03-16T14:53:25.715Z,14.40
2018-03-16T14:55:53.267Z,14.50
2018-03-16T14:58:20.864Z,14.60
2018-03-16T15:00:48.445Z,14.70
2018-03-16T15:03:16.042Z,14.60
2018-03-16T15:05:43.632Z,14.30
2018-03-16T15:08:11.355Z,15.40
2018-03-16T15:10:39.671Z,14.60
2018-03-16T15:13:07.376Z,14.60
2018-03-16T15:15:36.140Z,15.40
2018-03-16T15:18:03.702Z,15.60
2018-03-16T15:20:31.296Z,16.60
2018-03-16T15:22:59.630Z,14.60
2018-03-16T15:25:27.236Z,14.60
2018-03-16T15:27:55.699Z,14.00
2018-03-16T15:30:24.120Z,13.90
2018-03-16T15:32:51.684Z,13.80
2018-03-16T15:35:19.329Z,14.10
2018-03-16T15:37:47.054Z,14.30
2018-03-16T15:40:15.395Z,14.60
2018-03-16T15:42:43.080Z,14.60
2018-03-16T15:45:12.183Z,14.50
2018-03-16T15:47:39.777Z,14.50
2018-03-16T15:50:07.347Z,14.50
2018-03-16T15:52:34.944Z,14.40
2018-03-16T15:55:02.627Z,14.00
2018-03-16T15:57:31.091Z,13.40
2018-03-16T15:59:58.833Z,13.30
2018-03-16T16:02:26.424Z,13.90
2018-03-16T16:04:53.995Z,14.10
2018-03-16T16:07:22.366Z,13.70
2018-03-16T16:09:50.756Z,13.50
2018-03-16T16:12:19.104Z,13.20
2018-03-16T16:14:46.699Z,13.20
2018-03-16T16:17:14.260Z,13.00
2018-03-16T16:19:41.935Z,12.70
2018-03-16T16:22:09.594Z,12.90
2018-03-16T16:24:37.179Z,12.80
2018-03-16T16:27:05.548Z,13.00
2018-03-16T16:29:33.131Z,12.90
2018-03-16T16:32:00.738Z,13.00
2018-03-16T16:34:28.599Z,13.80
2018-03-16T16:36:56.123Z,14.50
2018-03-16T16:39:23.818Z,14.10
2018-03-16T16:41:51.383Z,13.60
2018-03-16T16:44:19.067Z,13.10
2018-03-16T16:46:46.667Z,13.00
2018-03-16T16:49:15.752Z,12.60
2018-03-16T16:51:43.343Z,12.60
2018-03-16T16:54:10.944Z,12.50
2018-03-16T16:56:38.643Z,12.50
2018-03-16T16:59:06.218Z,12.40
2018-03-16T17:01:33.815Z,12.40
2018-03-16T17:04:01.393Z,12.30
2018-03-16T17:06:28.980Z,12.40
2018-03-16T17:08:57.400Z,12.30
2018-03-16T17:11:25.025Z,12.30
2018-03-16T17:13:53.347Z,12.00
2018-03-16T17:16:20.911Z,12.00
2018-03-16T17:18:48.490Z,12.10
2018-03-16T17:21:16.043Z,12.00
2018-03-16T17:23:43.652Z,11.90
2018-03-16T17:26:11.226Z,12.00
2018-03-16T17:28:38.833Z,11.80
2018-03-16T17:31:06.389Z,11.80
2018-03-16T17:33:35.659Z,11.60
2018-03-16T17:36:03.323Z,11.60
2018-03-16T17:38:30.988Z,11.50
2018-03-16T17:40:58.567Z,11.60
2018-03-16T17:43:26.225Z,11.60
2018-03-16T17:45:53.782Z,11.40
2018-03-16T17:48:21.356Z,11.30
2018-03-16T17:50:48.947Z,11.20
2018-03-16T17:53:16.508Z,11.10
2018-03-16T17:55:44.172Z,11.00
2018-03-16T17:58:11.751Z,11.10
2018-03-16T18:00:39.347Z,10.90
2018-03-16T18:03:06.925Z,10.80
2018-03-16T18:05:35.287Z,11.00
2018-03-16T18:08:03.650Z,10.90
2018-03-16T18:10:31.346Z,10.90
2018-03-16T18:12:59.697Z,10.80
2018-03-16T18:15:28.023Z,10.90
2018-03-16T18:17:55.885Z,10.90
2018-03-16T18:20:23.464Z,10.90
2018-03-16T18:22:51.071Z,10.90
2018-03-16T18:25:19.400Z,10.80
2018-03-16T18:27:47.150Z,10.80
2018-03-16T18:30:14.736Z,10.80
2018-03-16T18:32:42.355Z,10.80
2018-03-16T18:35:09.914Z,10.60
2018-03-16T18:37:37.517Z,10.50
2018-03-16T18:40:05.864Z,10.30
2018-03-16T18:42:33.553Z,10.30
2018-03-16T18:45:01.243Z,10.30
2018-03-16T18:47:29.764Z,10.20
2018-03-16T18:49:57.337Z,10.20
2018-03-16T18:52:24.924Z,10.20
2018-03-16T18:54:52.576Z,10.20
2018-03-16T18:57:20.132Z,10.00
2018-03-16T18:59:47.749Z,9.90
2018-03-16T19:02:15.296Z,9.80
2018-03-16T19:04:42.881Z,9.70
2018-03-16T19:07:10.635Z,9.80
2018-03-16T19:09:38.211Z,9.70
2018-03-16T19:12:05.815Z,9.70
2018-03-16T19:14:34.153Z,9.60
2018-03-16T19:17:01.759Z,9.50
2018-03-16T19:19:30.099Z,9.50
2018-03-16T19:21:57.773Z,9.40
2018-03-16T19:24:25.332Z,9.40
2018-03-16T19:26:52.933Z,9.50
2018-03-16T19:29:20.519Z,9.50
2018-03-16T19:31:48.104Z,9.50
2018-03-16T19:34:15.691Z,9.50
2018-03-16T19:36:43.303Z,9.50
2018-03-16T19:39:10.948Z,9.50
2018-03-16T19:41:38.541Z,9.40
2018-03-16T19:44:06.158Z,9.40
2018-03-16T19:46:33.744Z,9.30
2018-03-16T19:49:01.339Z,9.20
2018-03-16T19:51:29.675Z,9.20
2018-03-16T19:53:57.295Z,9.20
2018-03-16T19:56:24.856Z,9.20
2018-03-16T19:58:52.460Z,9.20
2018-03-16T20:01:20.052Z,9.20
2018-03-16T20:03:48.588Z,9.10
2018-03-16T20:06:16.223Z,9.10
2018-03-16T20:08:43.799Z,9.10
2018-03-16T20:11:11.399Z,9.10
2018-03-16T20:13:39.740Z,9.00
2018-03-16T20:16:07.348Z,9.10
2018-03-16T20:18:35.692Z,9.00
2018-03-16T20:21:03.292Z,9.00
2018-03-16T20:23:30.947Z,9.00
2018-03-16T20:25:58.523Z,9.10
2018-03-16T20:28:26.140Z,9.00
2018-03-16T20:30:53.731Z,9.00
2018-03-16T20:33:21.337Z,9.00
2018-03-16T20:35:48.919Z,8.90
2018-03-16T20:38:16.555Z,8.90
2018-03-16T20:40:44.161Z,8.80
2018-03-16T20:43:12.507Z,8.20
2018-03-16T20:45:40.100Z,8.20
2018-03-16T20:48:07.846Z,8.10
2018-03-16T20:50:36.365Z,8.00
2018-03-16T20:53:04.192Z,8.00
2018-03-16T20:55:32.706Z,7.90
2018-03-16T20:58:00.364Z,7.90
2018-03-16T21:00:27.946Z,7.90
2018-03-16T21:02:55.572Z,8.00
2018-03-16T21:05:23.187Z,8.10
2018-03-16T21:07:50.757Z,8.20
2018-03-16T21:10:19.284Z,7.90
2018-03-16T21:12:46.875Z,7.90
2018-03-16T21:15:14.464Z,7.70
2018-03-16T21:17:42.829Z,7.60
2018-03-16T21:20:10.407Z,7.60
2018-03-16T21:22:38.793Z,7.50
2018-03-16T21:25:07.123Z,7.50
2018-03-16T21:27:34.727Z,7.50
2018-03-16T21:30:03.095Z,7.40
2018-03-16T21:32:31.447Z,7.40
2018-03-16T21:34:59.017Z,7.40
2018-03-16T21:37:26.615Z,7.30
2018-03-16T21:39:54.174Z,7.20
2018-03-16T21:42:21.779Z,7.00
2018-03-16T21:44:49.351Z,7.10
2018-03-16T21:47:17.132Z,7.20
2018-03-16T21:49:45.481Z,6.90
2018-03-16T21:52:13.060Z,6.90
2018-03-16T21:54:41.448Z,6.90
2018-03-16T21:57:09.830Z,7.10
2018-03-16T21:59:38.265Z,7.10
2018-03-16T22:02:05.914Z,7.10
2018-03-16T22:04:33.639Z,7.10
2018-03-16T22:07:01.312Z,7.00
2018-03-16T22:09:28.908Z,6.80
2018-03-16T22:11:56.520Z,6.60
2018-03-16T22:14:24.124Z,6.50
2018-03-16T22:16:51.713Z,6.50
2018-03-16T22:19:20.212Z,6.50
2018-03-16T22:21:47.828Z,6.50
2018-03-16T22:24:15.390Z,6.40
2018-03-16T22:26:42.986Z,6.30
2018-03-16T22:29:10.551Z,6.40
2018-03-16T22:31:38.193Z,6.30
2018-03-16T22:34:06.534Z,6.20
2018-03-16T22:36:34.204Z,6.20
2018-03-16T22:39:01.781Z,6.20
2018-03-16T22:41:30.251Z,6.30
2018-03-16T22:43:57.835Z,6.30
2018-03-16T22:46:26.281Z,6.30
2018-03-16T22:48:53.880Z,6.30
2018-03-16T22:51:21.632Z,6.30
2018-03-16T22:53:50.067Z,6.30
2018-03-16T22:56:17.630Z,6.30
2018-03-16T22:58:45.214Z,6.40
2018-03-16T23:01:12.785Z,6.30
2018-03-16T23:03:41.159Z,5.80
2018-03-16T23:06:09.488Z,5.70
2018-03-16T23:08:37.063Z,5.70
2018-03-16T23:11:04.772Z,5.70
2018-03-16T23:13:32.338Z,5.70
2018-03-16T23:15:59.930Z,5.70
2018-03-16T23:18:27.561Z,5.70
2018-03-16T23:20:55.344Z,5.60
2018-03-16T23:23:22.943Z,5.60
2018-03-16T23:25:50.545Z,5.60
2018-03-16T23:28:18.113Z,5.50
2018-03-16T23:30:45.732Z,5.60
2018-03-16T23:33:14.096Z,5.70
2018-03-16T23:35:42.485Z,5.70
2018-03-16T23:38:10.832Z,5.60
2018-03-16T23:40:38.422Z,5.60
2018-03-16T23:43:06.792Z,5.50
2018-03-16T23:45:35.187Z,5.40
2018-03-16T23:48:02.903Z,5.40
2018-03-16T23:50:30.474Z,5.40
2018-03-16T23:52:58.031Z,5.30
2018-03-16T23:55:26.443Z,5.50
2018-03-16T23:57:54.018Z,5.40
